Time;durP1;ratioP1;P1;durP2;ratioP2;P2;SDS_P1;SDS_P2;PMS_P1;PMS_P2;Temp;Humidity;BMP_temperature;BMP_pressure;BME280_temperature;BME280_humidity;BME280_pressure;Samples;Min_cycle;Max_cycle;Signal;HPM_P1;HPM_P2
2022/04/21 00:02:09;;;;;;;11.98;7.78;;;5.10;99.90;;;;;;5028370;28;20043;-44
2022/04/21 00:04:35;;;;;;;12.52;7.57;;;5.50;99.90;;;;;;5028864;28;20073;-45
2022/04/21 00:07:00;;;;;;;16.67;8.27;;;5.00;99.90;;;;;;5028835;28;20499;-45
2022/04/21 00:09:26;;;;;;;13.75;7.65;;;5.10;99.90;;;;;;5029012;28;20128;-49
2022/04/21 00:11:52;;;;;;;13.48;8.65;;;4.90;99.90;;;;;;5028795;28;20077;-45
2022/04/21 00:14:17;;;;;;;15.07;7.60;;;4.80;99.90;;;;;;5028331;28;20053;-46
2022/04/21 00:16:43;;;;;;;14.48;8.20;;;4.70;99.90;;;;;;5028468;28;20052;-45
2022/04/21 00:19:08;;;;;;;12.77;7.78;;;4.70;99.90;;;;;;5028387;28;20145;-45
2022/04/21 00:24:18;;;;;;;18.65;8.05;;;4.90;99.90;;;;;;5028588;28;20056;-44
2022/04/21 00:26:44;;;;;;;14.10;8.65;;;4.50;99.90;;;;;;5028549;28;20053;-45
2022/04/21 00:29:10;;;;;;;15.10;8.73;;;4.50;99.90;;;;;;5027972;28;20053;-49
2022/04/21 00:31:36;;;;;;;14.07;8.90;;;4.40;99.90;;;;;;5044093;28;20491;-45
2022/04/21 00:34:01;;;;;;;14.68;8.45;;;4.30;99.90;;;;;;5052033;28;20045;-46
2022/04/21 00:36:27;;;;;;;13.52;8.15;;;4.50;99.90;;;;;;5051891;28;20131;-45
2022/04/21 00:38:53;;;;;;;15.40;8.20;;;4.60;99.90;;;;;;5051952;28;20037;-45
2022/04/21 00:41:18;;;;;;;13.27;8.20;;;4.60;99.90;;;;;;5051586;28;20072;-45
2022/04/21 00:43:44;;;;;;;13.82;9.35;;;4.50;99.90;;;;;;5051677;28;20577;-47
2022/04/21 00:46:21;;;;;;;14.75;8.80;;;4.60;99.90;;;;;;5051819;28;20146;-45
2022/04/21 00:48:49;;;;;;;12.30;8.20;;;4.60;99.90;;;;;;5051970;28;20041;-49
2022/04/21 00:51:15;;;;;;;15.32;8.23;;;4.60;99.90;;;;;;5041019;28;20615;-45
2022/04/21 00:53:43;;;;;;;15.27;8.80;;;;;;;;;;5031849;28;20053;-45
2022/04/21 00:56:10;;;;;;;16.10;9.43;;;;;;;;;;5030899;28;20391;-45
2022/04/21 00:58:37;;;;;;;13.70;8.82;;;4.30;99.90;;;;;;5031543;28;20152;-45
2022/04/21 01:02:46;;;;;;;14.93;8.73;;;4.20;99.90;;;;;;5031202;28;20061;-45
2022/04/21 01:03:49;;;;;;;14.55;8.57;;;4.10;99.90;;;;;;5031743;28;20526;-45
2022/04/21 01:06:15;;;;;;;14.77;9.43;;;4.10;99.90;;;;;;5031617;28;20049;-46
2022/04/21 01:08:42;;;;;;;16.70;8.50;;;4.00;99.90;;;;;;5031721;28;20060;-44
2022/04/21 01:11:08;;;;;;;16.77;9.73;;;3.90;99.90;;;;;;5031390;28;20507;-45
2022/04/21 01:13:35;;;;;;;16.52;9.57;;;3.90;99.90;;;;;;5031280;28;20049;-45
2022/04/21 01:16:01;;;;;;;15.57;9.85;;;3.90;99.90;;;;;;5031450;28;20434;-46
2022/04/21 01:18:29;;;;;;;16.20;9.75;;;3.80;99.90;;;;;;5030985;28;20053;-47
2022/04/21 01:20:55;;;;;;;20.55;11.15;;;3.80;99.90;;;;;;5031508;28;20057;-45
2022/04/21 01:23:21;;;;;;;17.75;10.98;;;3.80;99.90;;;;;;5046530;28;20130;-45
2022/04/21 01:25:49;;;;;;;17.67;10.82;;;3.80;99.90;;;;;;5031109;28;20072;-45
2022/04/21 01:28:15;;;;;;;16.98;11.55;;;3.80;99.90;;;;;;5030498;28;20105;-45
2022/04/21 01:30:41;;;;;;;18.33;11.15;;;3.80;99.90;;;;;;5036697;28;20084;-45
2022/04/21 01:33:07;;;;;;;17.50;11.18;;;3.80;99.90;;;;;;5050495;28;20119;-45
2022/04/21 01:35:33;;;;;;;16.60;11.38;;;3.80;99.90;;;;;;5050596;28;20048;-44
2022/04/21 01:43:28;;;;;;;24.88;13.77;;;4.00;99.90;;;;;;5050245;28;20107;-44
2022/04/21 01:45:53;;;;;;;22.90;13.18;;;4.00;99.90;;;;;;5050801;28;20044;-44
2022/04/21 01:48:19;;;;;;;21.70;13.27;;;4.00;99.90;;;;;;5050381;28;20106;-45
2022/04/21 01:50:45;;;;;;;23.83;14.23;;;4.00;99.90;;;;;;5047823;28;20118;-44
2022/04/21 01:53:11;;;;;;;24.20;13.10;;;3.90;99.90;;;;;;5030310;28;20107;-48
2022/04/21 01:55:37;;;;;;;21.58;13.43;;;3.90;99.90;;;;;;5030248;28;20053;-44
2022/04/21 01:58:03;;;;;;;26.00;14.48;;;3.90;99.90;;;;;;5030124;28;20058;-46
2022/04/21 02:00:29;;;;;;;23.05;13.65;;;3.90;99.90;;;;;;5030167;28;20400;-45
2022/04/21 02:02:55;;;;;;;26.50;14.57;;;4.20;99.90;;;;;;5030302;28;20484;-45
2022/04/21 02:05:21;;;;;;;22.95;14.10;;;3.90;99.90;;;;;;5029883;28;20041;-45
2022/04/21 02:07:47;;;;;;;23.25;12.85;;;4.00;99.90;;;;;;5030014;28;20043;-45
2022/04/21 02:10:14;;;;;;;25.17;14.07;;;3.90;99.90;;;;;;5029702;28;20040;-45
2022/04/21 02:12:40;;;;;;;22.60;13.35;;;4.00;99.90;;;;;;5030253;28;20045;-45
2022/04/21 02:15:06;;;;;;;21.75;15.00;;;3.80;99.90;;;;;;5029998;28;20061;-46
2022/04/21 02:17:33;;;;;;;23.55;14.80;;;3.80;99.90;;;;;;5029629;28;20136;-45
2022/04/21 02:20:00;;;;;;;28.08;14.93;;;3.70;99.90;;;;;;5029908;28;20080;-45
2022/04/21 02:22:26;;;;;;;23.25;14.30;;;3.70;99.90;;;;;;5029783;28;20119;-45
2022/04/21 02:24:52;;;;;;;25.02;13.65;;;3.60;99.90;;;;;;5029954;28;20051;-44
2022/04/21 02:27:18;;;;;;;22.23;13.52;;;3.50;99.90;;;;;;5029696;28;20477;-46
2022/04/21 02:29:43;;;;;;;19.90;13.35;;;3.50;99.90;;;;;;5029674;28;20056;-44
2022/04/21 02:32:09;;;;;;;23.45;14.48;;;3.40;99.90;;;;;;5047489;28;20510;-44
2022/04/21 02:34:35;;;;;;;22.90;13.80;;;3.30;99.90;;;;;;5049676;28;20595;-44
2022/04/21 02:37:01;;;;;;;27.35;13.88;;;3.20;99.90;;;;;;5049381;28;20158;-46
2022/04/21 02:39:27;;;;;;;23.38;13.80;;;3.10;99.90;;;;;;5049051;28;20777;-46
2022/04/21 02:41:53;;;;;;;24.67;13.98;;;3.00;99.90;;;;;;5049434;28;20037;-45
2022/04/21 02:44:18;;;;;;;30.35;14.52;;;3.00;99.90;;;;;;5047746;28;20037;-44
2022/04/21 02:46:44;;;;;;;26.15;15.65;;;2.90;99.90;;;;;;5065076;28;20053;-46
2022/04/21 02:49:10;;;;;;;28.58;14.70;;;2.90;99.90;;;;;;5049561;28;20140;-45
2022/04/21 02:51:36;;;;;;;25.23;14.30;;;2.90;99.90;;;;;;5042972;28;20045;-47
2022/04/21 02:59:32;;;;;;;28.88;15.55;;;2.90;99.90;;;;;;5029045;28;20077;-45
2022/04/21 03:01:57;;;;;;;22.67;13.68;;;2.80;99.90;;;;;;5029167;28;20037;-45
2022/04/21 03:04:23;;;;;;;27.13;16.02;;;2.80;99.90;;;;;;5028713;28;20534;-44
2022/04/21 03:06:49;;;;;;;26.08;14.32;;;2.70;99.90;;;;;;5027516;28;20960;-47
2022/04/21 03:09:14;;;;;;;25.67;15.10;;;2.70;99.90;;;;;;5029086;28;20041;-44
2022/04/21 03:11:40;;;;;;;25.90;14.52;;;2.60;99.90;;;;;;5028848;28;20045;-45
2022/04/21 03:14:06;;;;;;;27.20;14.13;;;2.60;99.90;;;;;;5028956;28;20091;-45
2022/04/21 03:16:31;;;;;;;27.83;15.30;;;2.60;99.90;;;;;;5028598;28;20199;-45
2022/04/21 03:18:57;;;;;;;25.75;15.43;;;2.60;99.90;;;;;;5028887;28;20041;-46
2022/04/21 03:24:19;;;;;;;28.10;16.65;;;2.40;99.90;;;;;;5028992;28;20041;-44
2022/04/21 03:26:49;;;;;;;30.35;16.42;;;2.50;99.90;;;;;;5028672;28;20099;-45
2022/04/21 03:29:15;;;;;;;26.42;15.20;;;2.60;99.90;;;;;;5028512;28;20053;-45
2022/04/21 03:31:43;;;;;;;28.50;15.80;;;2.50;99.90;;;;;;5041962;28;20044;-47
2022/04/21 03:34:14;;;;;;;25.25;14.80;;;2.40;99.90;;;;;;5048605;28;20044;-45
2022/04/21 03:36:44;;;;;;;30.85;16.48;;;2.40;99.90;;;;;;5048783;28;20384;-45
2022/04/21 03:39:10;;;;;;;29.15;16.42;;;2.30;99.90;;;;;;5048823;28;20041;-44
2022/04/21 03:41:36;;;;;;;33.67;16.92;;;2.30;99.90;;;;;;5048971;28;20040;-45
2022/04/21 03:44:02;;;;;;;34.88;16.38;;;2.40;99.90;;;;;;5048801;28;20039;-46
2022/04/21 03:46:28;;;;;;;30.92;17.48;;;2.40;99.90;;;;;;5048898;28;20076;-44
2022/04/21 03:48:53;;;;;;;30.58;17.80;;;2.30;99.90;;;;;;5049390;28;20037;-44
2022/04/21 03:51:19;;;;;;;30.65;18.35;;;2.70;99.90;;;;;;5048988;28;20045;-45
2022/04/21 03:53:45;;;;;;;31.90;17.95;;;2.40;99.90;;;;;;5048144;28;20033;-44
2022/04/21 03:56:10;;;;;;;37.13;18.70;;;2.30;99.90;;;;;;5048862;28;20037;-46
2022/04/21 03:58:36;;;;;;;38.17;18.77;;;2.50;99.90;;;;;;5048770;28;20128;-46
2022/04/21 04:01:01;;;;;;;34.22;17.27;;;2.40;99.90;;;;;;5049187;28;20097;-45
2022/04/21 04:03:27;;;;;;;31.95;18.45;;;2.50;99.90;;;;;;5048627;28;20044;-46
2022/04/21 04:05:53;;;;;;;32.53;18.13;;;2.40;99.90;;;;;;5050604;28;20097;-45
2022/04/21 04:11:03;;;;;;;28.05;17.00;;;2.50;99.90;;;;;;5052910;28;20051;-46
2022/04/21 04:13:28;;;;;;;31.33;18.50;;;2.40;99.90;;;;;;5052690;28;20124;-44
2022/04/21 04:15:54;;;;;;;37.53;18.50;;;2.40;99.90;;;;;;5052742;28;20144;-45
2022/04/21 04:18:21;;;;;;;33.40;18.45;;;2.30;99.90;;;;;;5052433;28;20128;-48
2022/04/21 04:20:47;;;;;;;29.70;17.55;;;2.40;99.90;;;;;;5051230;28;20052;-48
2022/04/21 04:23:17;;;;;;;27.17;16.95;;;2.40;99.90;;;;;;5052591;28;20041;-45
2022/04/21 04:25:43;;;;;;;28.73;17.73;;;2.40;99.90;;;;;;5052496;28;20392;-44
2022/04/21 04:28:09;;;;;;;30.77;17.85;;;2.50;99.90;;;;;;5052370;28;20059;-45
2022/04/21 04:30:40;;;;;;;31.23;16.95;;;2.50;99.90;;;;;;5052190;28;20056;-44
2022/04/21 04:33:09;;;;;;;29.80;17.35;;;2.50;99.90;;;;;;5052305;28;20472;-44
2022/04/21 04:35:35;;;;;;;30.30;17.52;;;2.50;99.90;;;;;;5051906;28;20048;-44
2022/04/21 04:38:01;;;;;;;29.25;18.05;;;2.50;99.90;;;;;;5052166;28;20095;-45
2022/04/21 04:40:27;;;;;;;30.52;17.10;;;2.50;99.90;;;;;;5052212;28;20484;-44
2022/04/21 04:42:54;;;;;;;27.60;15.55;;;2.50;99.90;;;;;;5052177;28;20069;-45
2022/04/21 04:48:05;;;;;;;25.05;16.00;;;2.50;99.90;;;;;;5051983;28;20051;-44
2022/04/21 04:50:31;;;;;;;29.55;17.02;;;2.50;99.90;;;;;;5051932;28;20044;-45
2022/04/21 04:53:00;;;;;;;27.58;15.98;;;2.40;99.90;;;;;;5041752;28;20096;-44
2022/04/21 04:55:27;;;;;;;27.67;16.63;;;2.50;99.90;;;;;;5031881;28;20045;-44
2022/04/21 04:57:52;;;;;;;28.52;16.33;;;2.70;99.90;;;;;;5031511;28;20524;-44
2022/04/21 05:00:18;;;;;;;28.90;16.20;;;2.60;99.90;;;;;;5031800;28;20077;-45
2022/04/21 05:02:44;;;;;;;28.33;17.08;;;2.90;99.90;;;;;;5031414;28;20124;-45
2022/04/21 05:05:11;;;;;;;26.30;17.20;;;3.20;99.90;;;;;;5031835;28;20091;-44
2022/04/21 05:07:39;;;;;;;29.45;16.20;;;3.40;99.90;;;;;;5031673;28;20041;-44
2022/04/21 05:10:08;;;;;;;27.92;16.35;;;3.80;99.90;;;;;;5031833;28;20049;-46
2022/04/21 05:12:34;;;;;;;23.02;15.40;;;4.50;99.90;;;;;;5031722;28;20049;-45
2022/04/21 05:15:00;;;;;;;25.48;15.50;;;4.90;99.90;;;;;;5031403;28;20045;-44
2022/04/21 05:17:26;;;;;;;22.27;14.15;;;5.20;99.90;;;;;;5030589;28;20111;-45
2022/04/21 05:19:53;;;;;;;18.60;12.98;;;6.30;99.90;;;;;;5040184;28;20044;-45
2022/04/21 05:22:24;;;;;;;17.27;12.32;;;7.70;99.90;;;;;;5051208;28;20087;-46
2022/04/21 05:24:52;;;;;;;18.45;10.55;;;9.00;99.90;;;;;;5048583;28;20483;-45
2022/04/21 05:27:18;;;;;;;13.27;8.77;;;9.60;99.90;;;;;;5051017;28;20044;-45
2022/04/21 05:32:35;;;;;;;15.32;9.43;;;10.80;99.90;;;;;;5050916;28;20052;-46
2022/04/21 05:35:02;;;;;;;11.20;7.93;;;12.00;99.90;;;;;;5050586;28;20066;-47
2022/04/21 05:37:28;;;;;;;15.10;7.28;;;12.80;99.90;;;;;;5050351;28;20107;-45
2022/04/21 05:39:54;;;;;;;10.93;6.75;;;13.50;99.90;;;;;;5049339;28;20480;-45
2022/04/21 05:42:23;;;;;;;14.27;6.70;;;14.20;98.30;;;;;;5050584;28;20122;-45
2022/04/21 05:44:52;;;;;;;12.60;6.53;;;14.60;92.50;;;;;;5047921;28;20024;-43
2022/04/21 05:47:21;;;;;;;10.65;5.82;;;15.00;91.10;;;;;;5049193;28;20051;-43
2022/04/21 05:49:47;;;;;;;8.65;5.88;;;15.50;90.00;;;;;;5047449;28;20029;-44
2022/04/21 05:52:14;;;;;;;10.90;6.03;;;16.20;89.00;;;;;;5048638;28;20504;-44
2022/04/21 05:54:40;;;;;;;10.05;5.20;;;16.80;85.90;;;;;;5049369;28;20138;-43
2022/04/21 05:57:06;;;;;;;8.00;5.32;;;17.40;82.60;;;;;;5047095;28;20080;-44
2022/04/21 05:59:32;;;;;;;10.32;6.10;;;17.80;78.10;;;;;;5050018;28;20106;-44
2022/04/21 06:01:59;;;;;;;6.85;4.85;;;18.20;73.30;;;;;;5049521;28;20041;-43
2022/04/21 06:04:25;;;;;;;9.63;5.10;;;18.50;73.70;;;;;;5049722;28;20062;-43
2022/04/21 06:06:51;;;;;;;5.85;4.65;;;18.70;71.40;;;;;;5049977;28;20043;-44
2022/04/21 06:09:16;;;;;;;7.35;4.65;;;19.00;69.60;;;;;;5049938;28;20483;-43
2022/04/21 06:11:43;;;;;;;7.63;4.55;;;19.20;68.40;;;;;;5050005;28;20398;-45
2022/04/21 06:14:09;;;;;;;7.38;4.63;;;18.80;68.50;;;;;;5049489;28;20052;-43
2022/04/21 06:16:35;;;;;;;9.00;4.45;;;19.40;67.90;;;;;;5049781;28;20569;-44
2022/04/21 06:19:00;;;;;;;9.68;4.13;;;19.80;65.40;;;;;;5049872;28;20074;-45
2022/04/21 06:21:26;;;;;;;7.95;3.92;;;20.30;64.40;;;;;;5049733;28;20094;-44
2022/04/21 06:23:52;;;;;;;6.30;4.05;;;20.70;62.80;;;;;;5049274;28;20033;-44
2022/04/21 06:26:17;;;;;;;5.05;3.20;;;21.10;61.40;;;;;;5049409;28;20438;-44
2022/04/21 06:28:44;;;;;;;5.28;3.33;;;21.50;60.20;;;;;;5048990;28;20048;-44
2022/04/21 06:31:10;;;;;;;5.78;3.42;;;21.70;58.20;;;;;;5048814;28;20511;-44
2022/04/21 06:33:36;;;;;;;5.68;3.70;;;21.90;57.70;;;;;;5049094;28;20119;-44
2022/04/21 06:36:07;;;;;;;7.85;3.00;;;22.10;56.70;;;;;;5049151;28;20036;-45
2022/04/21 06:38:33;;;;;;;6.00;3.05;;;22.40;56.40;;;;;;5044381;28;20159;-45
2022/04/21 06:40:59;;;;;;;5.38;3.33;;;22.50;55.00;;;;;;5048988;28;20115;-44
2022/04/21 06:48:53;;;;;;;3.05;2.15;;;22.70;52.90;;;;;;5045961;28;20102;-44
2022/04/21 06:51:19;;;;;;;4.43;2.90;;;23.10;52.90;;;;;;5048347;28;20456;-44
2022/04/21 06:53:45;;;;;;;4.45;2.45;;;23.30;51.50;;;;;;5047749;28;20053;-44
2022/04/21 06:56:12;;;;;;;4.22;2.47;;;23.50;50.40;;;;;;5048242;28;20502;-45
2022/04/21 06:58:40;;;;;;;5.95;2.33;;;23.50;49.80;;;;;;5048518;28;20040;-44
2022/04/21 07:01:05;;;;;;;4.90;3.33;;;23.10;49.30;;;;;;5048305;28;20049;-45
2022/04/21 07:03:32;;;;;;;5.50;2.38;;;23.10;48.80;;;;;;5048488;28;20040;-46
2022/04/21 07:05:59;;;;;;;3.65;2.50;;;23.40;48.80;;;;;;5048191;28;20079;-44
2022/04/21 07:08:25;;;;;;;3.22;1.77;;;23.60;48.50;;;;;;5048264;28;20051;-45
2022/04/21 07:10:50;;;;;;;2.88;1.60;;;23.80;48.30;;;;;;5048245;28;20037;-45
2022/04/21 07:13:16;;;;;;;3.03;1.70;;;23.90;47.90;;;;;;5048737;28;20143;-46
2022/04/21 07:15:42;;;;;;;2.92;1.83;;;23.80;47.10;;;;;;5048534;28;20036;-45
2022/04/21 07:18:09;;;;;;;2.95;1.45;;;23.30;46.20;;;;;;5048379;28;20049;-44
2022/04/21 07:20:34;;;;;;;5.65;1.85;;;22.80;50.10;;;;;;5048023;28;20076;-44
2022/04/21 07:23:01;;;;;;;4.55;2.15;;;21.70;51.40;;;;;;5048674;28;20496;-45
2022/04/21 07:25:27;;;;;;;2.90;1.65;;;21.30;63.90;;;;;;5047994;28;20048;-45
2022/04/21 07:27:54;;;;;;;4.70;1.77;;;20.70;59.90;;;;;;5037419;28;20082;-50
2022/04/21 07:30:20;;;;;;;4.00;2.20;;;20.20;59.00;;;;;;5036792;28;20063;-56
2022/04/21 07:32:49;;;;;;;3.30;1.30;;;19.60;58.70;;;;;;5041316;28;20068;-57
2022/04/21 07:35:20;;;;;;;4.35;1.70;;;19.20;58.90;;;;;;5045510;28;20407;-41
2022/04/21 07:37:46;;;;;;;5.35;2.30;;;18.80;59.00;;;;;;5042114;28;20041;-41
2022/04/21 07:40:12;;;;;;;3.90;1.98;;;18.00;60.50;;;;;;5024121;28;20033;-41
2022/04/21 07:42:38;;;;;;;5.25;1.98;;;17.30;63.90;;;;;;5042279;28;20497;-47
2022/04/21 07:45:04;;;;;;;4.90;1.70;;;16.70;68.80;;;;;;5044375;28;20393;-43
2022/04/21 07:47:42;;;;;;;4.05;2.05;;;16.10;68.20;;;;;;5026660;28;20850;-44
2022/04/21 07:50:08;;;;;;;4.22;1.85;;;15.80;69.60;;;;;;5041258;28;20056;-43
2022/04/21 07:55:24;;;;;;;4.07;2.13;;;16.00;70.00;;;;;;5037763;28;20956;-44
2022/04/21 07:57:52;;;;;;;3.55;1.48;;;16.60;67.30;;;;;;5040598;28;20453;-46
2022/04/21 08:00:18;;;;;;;4.50;1.90;;;16.70;63.30;;;;;;5041235;28;20028;-53
2022/04/21 08:02:46;;;;;;;4.07;1.98;;;16.80;61.30;;;;;;5041059;28;20036;-53
2022/04/21 08:05:14;;;;;;;4.07;1.67;;;16.80;61.10;;;;;;5037413;28;20033;-39
2022/04/21 08:07:40;;;;;;;4.65;1.60;;;17.00;60.30;;;;;;5039320;28;20037;-43
2022/04/21 08:10:11;;;;;;;2.60;1.83;;;17.40;60.10;;;;;;5040834;28;20048;-54
2022/04/21 08:12:39;;;;;;;3.50;2.15;;;18.10;55.10;;;;;;5036396;28;20071;-42
2022/04/21 08:15:06;;;;;;;4.03;1.80;;;19.10;53.60;;;;;;5036430;28;20047;-39
2022/04/21 08:17:32;;;;;;;7.07;1.83;;;20.10;52.20;;;;;;5041217;28;20051;-43
2022/04/21 08:19:57;;;;;;;3.47;1.40;;;21.40;50.50;;;;;;5041686;28;20037;-42
2022/04/21 08:22:23;;;;;;;2.78;1.60;;;22.60;49.30;;;;;;5036259;28;20116;-41
2022/04/21 08:33:01;;;;;;;5.45;2.33;;;24.50;43.90;;;;;;5045328;28;20056;-42
2022/04/21 08:35:27;;;;;;;4.13;1.73;;;24.80;44.00;;;;;;5043861;28;20049;-39
2022/04/21 08:37:53;;;;;;;3.97;1.85;;;25.50;44.40;;;;;;5045502;28;20045;-39
2022/04/21 08:40:18;;;;;;;2.88;1.40;;;26.00;43.00;;;;;;5043689;28;20070;-39
2022/04/21 08:42:44;;;;;;;5.05;1.70;;;26.50;43.00;;;;;;5045846;28;20087;-40
2022/04/21 08:45:12;;;;;;;2.72;1.42;;;26.90;41.90;;;;;;5046042;28;20052;-38
2022/04/21 08:47:46;;;;;;;2.63;1.27;;;26.70;41.10;;;;;;5037208;28;20103;-41
2022/04/21 08:50:14;;;;;;;7.30;1.85;;;26.70;40.90;;;;;;5045001;28;20048;-39
2022/04/21 08:52:41;;;;;;;2.55;1.10;;;26.70;41.30;;;;;;5046239;28;20438;-39
2022/04/21 08:55:08;;;;;;;3.95;1.42;;;27.10;41.00;;;;;;5035195;28;20132;-38
2022/04/21 08:57:37;;;;;;;4.38;1.50;;;26.90;40.10;;;;;;5035738;28;20159;-39
2022/04/21 09:00:08;;;;;;;3.08;1.15;;;27.10;40.00;;;;;;5047794;28;20044;-38
2022/04/21 09:02:42;;;;;;;2.55;1.23;;;27.20;39.50;;;;;;5047725;28;20037;-38
2022/04/21 09:05:09;;;;;;;3.15;1.52;;;27.50;39.30;;;;;;5047730;28;20045;-38
2022/04/21 09:07:44;;;;;;;1.75;0.90;;;27.50;44.10;;;;;;5048166;28;20131;-39
2022/04/21 09:10:11;;;;;;;4.07;1.08;;;27.30;39.30;;;;;;5028604;28;20128;-40
2022/04/21 09:12:45;;;;;;;2.42;1.10;;;27.40;39.40;;;;;;5047532;28;20048;-38
2022/04/21 09:15:16;;;;;;;4.90;1.70;;;27.10;38.60;;;;;;5048546;28;20052;-40
2022/04/21 09:18:02;;;;;;;3.80;1.02;;;27.10;38.10;;;;;;5048638;28;20048;-40
2022/04/21 09:20:39;;;;;;;2.45;1.33;;;26.60;39.10;;;;;;5047110;28;20089;-41
2022/04/21 09:23:10;;;;;;;3.78;1.25;;;26.60;39.30;;;;;;5042213;28;20053;-39
2022/04/21 09:25:51;;;;;;;3.88;1.20;;;26.80;39.70;;;;;;5048390;28;20060;-41
2022/04/21 09:28:22;;;;;;;3.93;1.30;;;27.30;39.60;;;;;;5047598;28;20138;-40
2022/04/21 09:30:50;;;;;;;3.40;1.00;;;27.50;38.80;;;;;;5048146;28;20535;-39
2022/04/21 09:33:32;;;;;;;3.83;1.15;;;27.40;38.30;;;;;;5047969;28;20040;-42
2022/04/21 09:36:01;;;;;;;1.95;0.95;;;27.30;37.70;;;;;;5048609;28;20124;-41
2022/04/21 09:38:27;;;;;;;2.75;1.05;;;27.20;38.50;;;;;;5048003;28;20132;-42
2022/04/21 09:40:53;;;;;;;4.07;1.00;;;26.90;38.50;;;;;;5047800;28;20052;-40
2022/04/21 09:43:29;;;;;;;3.60;1.00;;;27.00;38.30;;;;;;5047769;28;20040;-41
2022/04/21 09:46:10;;;;;;;2.30;0.93;;;26.90;37.70;;;;;;5048261;28;20222;-42
2022/04/21 09:48:37;;;;;;;3.75;1.25;;;26.20;38.30;;;;;;5039188;28;20057;-40
2022/04/21 09:51:14;;;;;;;2.40;1.17;;;25.80;39.40;;;;;;5047414;28;20044;-41
2022/04/21 09:54:02;;;;;;;3.33;1.27;;;25.60;39.60;;;;;;5047043;28;20555;-39
2022/04/21 09:56:36;;;;;;;2.92;1.15;;;25.30;37.80;;;;;;5045375;28;20048;-39
2022/04/21 09:59:08;;;;;;;3.70;1.20;;;25.30;39.40;;;;;;5046955;28;20041;-40
2022/04/21 10:01:36;;;;;;;1.60;1.00;;;25.50;39.90;;;;;;5047241;28;20077;-40
2022/04/21 10:04:09;;;;;;;2.45;0.98;;;25.50;39.50;;;;;;5047173;28;20447;-42
2022/04/21 10:06:42;;;;;;;2.00;0.70;;;25.30;39.30;;;;;;5045790;28;20045;-42
2022/04/21 10:09:09;;;;;;;2.25;1.00;;;25.10;39.20;;;;;;5047252;28;20045;-41
2022/04/21 10:11:38;;;;;;;2.15;0.75;;;25.00;40.00;;;;;;5047104;28;20047;-44
2022/04/21 10:14:06;;;;;;;3.35;1.17;;;25.00;39.40;;;;;;5047333;28;20047;-43
2022/04/21 10:16:32;;;;;;;3.33;1.25;;;24.50;39.40;;;;;;5046393;28;20839;-42
2022/04/21 10:19:00;;;;;;;3.00;1.10;;;24.00;39.70;;;;;;5047101;28;20594;-42
2022/04/21 10:21:48;;;;;;;7.03;1.65;;;23.60;40.80;;;;;;5047154;28;20036;-42
2022/04/21 10:24:24;;;;;;;3.08;1.38;;;23.60;40.90;;;;;;5047200;28;20167;-42
2022/04/21 10:26:50;;;;;;;5.75;1.33;;;24.00;42.40;;;;;;5044362;28;20041;-41
2022/04/21 10:29:17;;;;;;;3.25;1.25;;;24.20;40.90;;;;;;5048892;28;20076;-40
2022/04/21 10:32:00;;;;;;;3.22;1.40;;;24.20;40.30;;;;;;5049488;28;20064;-39
2022/04/21 10:34:32;;;;;;;4.78;1.80;;;24.50;40.10;;;;;;5049552;28;20056;-38
2022/04/21 10:37:04;;;;;;;;;;;24.70;39.50;;;;;;5050215;28;20044;-39
2022/04/21 10:39:30;;;;;;;;;;;24.40;40.20;;;;;;5049945;28;19921;-38
2022/04/21 10:42:18;;;;;;;3.90;1.13;;;24.40;39.40;;;;;;5049494;28;19931;-38
2022/04/21 10:44:48;;;;;;;2.22;1.58;;;24.00;40.50;;;;;;5049398;28;20535;-38
2022/04/21 10:47:36;;;;;;;3.33;1.65;;;23.40;40.90;;;;;;5049077;28;20045;-38
2022/04/21 10:50:10;;;;;;;2.53;1.48;;;22.40;42.00;;;;;;5049649;28;20120;-38
2022/04/21 10:57:50;;;;;;;5.35;1.40;;;20.80;44.50;;;;;;5029358;28;20053;-38
2022/04/21 11:00:25;;;;;;;4.60;1.83;;;20.50;45.10;;;;;;5029379;28;20052;-38
2022/04/21 11:03:26;;;;;;;4.80;1.45;;;20.10;46.70;;;;;;5029550;28;20045;-38
2022/04/21 11:06:06;;;;;;;5.45;1.90;;;19.70;47.20;;;;;;5029697;28;20198;-38
2022/04/21 11:08:32;;;;;;;2.42;1.77;;;19.50;47.90;;;;;;5029094;28;20048;-37
2022/04/21 11:10:58;;;;;;;3.10;1.52;;;19.40;48.10;;;;;;5029289;28;20120;-38
2022/04/21 11:13:40;;;;;;;2.80;1.50;;;19.20;48.70;;;;;;5037975;28;20460;-38
2022/04/21 11:16:06;;;;;;;4.50;1.33;;;19.10;48.50;;;;;;5048646;28;20071;-38
2022/04/21 11:18:32;;;;;;;4.10;1.63;;;18.90;48.30;;;;;;5049324;28;20045;-38
2022/04/21 11:21:27;;;;;;;3.03;1.77;;;18.90;48.90;;;;;;5049295;28;20041;-38
2022/04/21 11:23:52;;;;;;;4.65;2.47;;;18.80;49.70;;;;;;5044016;28;20523;-38
2022/04/21 11:26:25;;;;;;;4.25;1.80;;;19.00;49.10;;;;;;5049019;28;20037;-38
2022/04/21 11:28:51;;;;;;;5.03;1.75;;;19.20;49.30;;;;;;5048295;28;20126;-38
2022/04/21 11:31:20;;;;;;;4.40;1.95;;;19.50;49.00;;;;;;5048978;28;20052;-39
2022/04/21 11:33:47;;;;;;;3.70;1.70;;;19.70;49.30;;;;;;5048563;28;20361;-38
2022/04/21 11:36:15;;;;;;;6.20;1.90;;;19.90;49.20;;;;;;5049046;28;20045;-38
2022/04/21 11:38:45;;;;;;;2.95;1.90;;;19.80;49.00;;;;;;5048507;28;20056;-38
2022/04/21 11:41:13;;;;;;;4.70;1.80;;;19.70;48.40;;;;;;5048654;28;20041;-39
2022/04/21 11:43:49;;;;;;;2.67;1.80;;;19.80;49.30;;;;;;5048411;28;20090;-38
2022/04/21 11:46:19;;;;;;;3.97;1.48;;;20.00;49.80;;;;;;5047271;28;20103;-38
2022/04/21 11:48:44;;;;;;;5.75;2.65;;;20.30;49.60;;;;;;5048362;28;20049;-38
2022/04/21 11:51:12;;;;;;;3.53;2.00;;;20.00;48.30;;;;;;5048665;28;20098;-37
2022/04/21 11:53:41;;;;;;;4.70;2.00;;;19.70;48.10;;;;;;5048346;28;20045;-38
2022/04/21 11:56:11;;;;;;;4.43;2.25;;;19.30;49.10;;;;;;5046832;28;20053;-38
2022/04/21 11:58:44;;;;;;;6.25;2.05;;;19.00;49.60;;;;;;5048301;28;20471;-38
2022/04/21 12:06:52;;;;;;;2.72;1.77;;;18.60;51.30;;;;;;5048214;28;20106;-38
2022/04/21 12:09:20;;;;;;;5.47;2.15;;;18.80;51.70;;;;;;5048359;28;20049;-38
2022/04/21 12:12:00;;;;;;;2.72;1.70;;;18.80;51.20;;;;;;5048225;28;20063;-38
2022/04/21 12:14:27;;;;;;;4.10;1.90;;;18.80;50.60;;;;;;5048477;28;20146;-38
2022/04/21 12:16:54;;;;;;;3.38;1.75;;;18.60;50.50;;;;;;5048305;28;20028;-37
2022/04/21 12:19:38;;;;;;;2.67;2.05;;;18.50;50.40;;;;;;5048139;28;20045;-38
2022/04/21 12:22:07;;;;;;;6.80;2.42;;;18.50;52.00;;;;;;5048528;28;20049;-38
2022/04/21 12:24:39;;;;;;;6.88;2.83;;;18.40;51.60;;;;;;5048400;28;20041;-38
2022/04/21 12:27:14;;;;;;;4.18;2.28;;;18.40;51.30;;;;;;5050540;28;20214;-38
2022/04/21 12:29:51;;;;;;;3.75;2.65;;;18.30;52.10;;;;;;5051540;28;20880;-40
2022/04/21 12:32:22;;;;;;;4.75;2.92;;;18.20;52.50;;;;;;5050987;28;20037;-38
2022/04/21 12:34:49;;;;;;;4.93;2.57;;;18.20;52.70;;;;;;5051908;28;20072;-38
2022/04/21 12:37:15;;;;;;;3.42;2.35;;;18.20;53.50;;;;;;5051844;28;20790;-38
2022/04/21 12:39:40;;;;;;;5.18;2.97;;;18.20;52.90;;;;;;5052163;28;20044;-38
2022/04/21 12:42:07;;;;;;;4.10;3.17;;;18.20;52.50;;;;;;5052339;28;20033;-41
2022/04/21 12:44:33;;;;;;;5.07;3.05;;;18.10;53.00;;;;;;5052068;28;20079;-38
2022/04/21 12:47:15;;;;;;;7.35;2.90;;;18.00;53.00;;;;;;5051772;28;20080;-39
2022/04/21 12:50:03;;;;;;;7.30;2.85;;;17.90;53.10;;;;;;5051698;28;20519;-38
2022/04/21 12:52:28;;;;;;;5.60;2.45;;;17.90;54.20;;;;;;5052226;28;20040;-38
2022/04/21 12:54:54;;;;;;;4.13;2.72;;;18.00;53.60;;;;;;5051709;28;20526;-38
2022/04/21 12:57:20;;;;;;;5.97;2.72;;;18.00;53.10;;;;;;5050801;28;20106;-39
2022/04/21 12:59:46;;;;;;;5.20;2.28;;;18.00;53.00;;;;;;5051343;28;20029;-39
2022/04/21 13:02:13;;;;;;;5.90;3.53;;;18.00;53.70;;;;;;5029622;28;20144;-39
2022/04/21 13:04:40;;;;;;;5.00;2.70;;;18.10;53.30;;;;;;5033615;28;20052;-38
2022/04/21 13:07:08;;;;;;;3.97;2.40;;;18.10;53.40;;;;;;5027756;28;20045;-38
2022/04/21 13:09:34;;;;;;;6.93;3.25;;;18.20;54.10;;;;;;5028516;28;20079;-38
2022/04/21 13:12:00;;;;;;;5.03;2.65;;;18.40;54.50;;;;;;5027968;28;20041;-38
2022/04/21 13:14:25;;;;;;;5.97;3.47;;;18.40;54.00;;;;;;5028188;28;20472;-38
2022/04/21 13:16:51;;;;;;;6.20;3.00;;;18.30;53.40;;;;;;5028054;28;20374;-38
2022/04/21 13:19:17;;;;;;;5.55;3.30;;;18.10;53.10;;;;;;5036887;28;20777;-40
2022/04/21 13:21:57;;;;;;;5.03;3.17;;;18.00;53.70;;;;;;5048315;28;20049;-38
2022/04/21 13:24:24;;;;;;;7.70;3.72;;;17.90;53.90;;;;;;5048495;28;20037;-38
2022/04/21 13:26:54;;;;;;;5.18;3.38;;;17.90;54.60;;;;;;5048193;28;20045;-38
2022/04/21 13:29:23;;;;;;;6.00;3.58;;;17.90;54.70;;;;;;5034295;28;20099;-38
2022/04/21 13:34:42;;;;;;;7.00;3.38;;;17.70;55.00;;;;;;5047155;28;20055;-38
2022/04/21 13:37:09;;;;;;;9.88;3.00;;;17.70;55.00;;;;;;5047975;28;20056;-38
2022/04/21 13:39:36;;;;;;;5.68;3.30;;;17.70;54.70;;;;;;5047872;28;20041;-38
2022/04/21 13:42:04;;;;;;;5.53;2.92;;;17.60;54.90;;;;;;5047615;28;20111;-38
2022/04/21 13:44:30;;;;;;;6.03;3.10;;;17.60;55.00;;;;;;5047430;28;20025;-40
2022/04/21 13:46:57;;;;;;;4.85;3.30;;;17.50;55.10;;;;;;5046649;28;20812;-40